Airfield :
LOGIN :

Register | Disclaimer

   EN    FR    IT 

 










Legend :    VFR   Marginal VFR   IFR   Intensive IFR   Very Intensive IFR
Visi :
Ceiling :
>= 8 km
>= 3000ft
5 to 8 km
1000 to 3000 ft
1500m to 5 km
500 to 1000 ft
800 to 1500m
200 to 500 ft
< 800m
< 200 ft
Symbols :   Thunderstorms  Fog  Heavy snow  Heavy precipitations  Wind > 20 kt
SIGMETs :     Misc.  Thunderstorms  Icing  Turbulence  Mountain Waves  Volcanic Ashes






- Airport Elevation : 49 ft
- IATA code : GLZ


EHGR - Gilze-Rijen Airbase

CURRENT METAR :
  • 171900Z AUTO 28004KT 7000 BR OVC023 04/03 Q1037 WHT NOSIG

EXPIRED METARs :
  • 171858Z AUTO 28005KT 1300 R28/P3000N BR BKN023 BKN033 04/04 Q1037 AMB NOSIG
  • 171848Z AUTO 29004KT 3100 R28/P3000N BR FEW021 03/03 Q1037 YLO NOSIG
  • 171825Z AUTO 28004KT 6000 BR SCT018 04/04 Q1037 WHT NOSIG
  • 171759Z AUTO 29006KT 7000 -UP NCD 04/03 Q1037 WHT NOSIG
  • 171750Z AUTO 29005KT 8000 BR NCD 05/04 Q1036 BLU NOSIG
  • 171725Z AUTO 28004KT 9999 NCD 05/04 Q1036 BLU NOSIG
  • 171655Z AUTO 31005KT 270V010 9999 NCD 05/03 Q1036 BLU NOSIG
  • 171640Z AUTO 30007KT 9999 NCD 05/04 Q1036 BLU NOSIG
  • 171625Z AUTO 32006KT 280V030 9999 NCD 07/05 Q1036 BLU

TAF TAF EHGR
Valid from the 17 at 18:00 until the 18 at 06:00 UTC


171730Z 1718/1806 31005KT 9000 NSC
BECMG 1718/1721 VRB03KT 3500 BR MIFG
BECMG 1721/1724 1200
PROB30
TEMPO 1721/1806 SCT006 BKN010
PROB40 1722/1806 0600 FG



MET'MAP, your aeronautical weather chart ! - Copyright ORBIFLY December 2007 - Disclaimer

ORBIFLY MET'MAP TEAM :

Programming & Development : Alexandra Zaïnal
Concept & original design : Baudouin d'Aumeries
Assistance for programming : Marc-Olivier Méhu
Technical & hardware support : Manuel Goepfert

Contact : metmap@orbifly.com




SOURCES & CREDITS :

   NOAA